sensor_id;sensor_type;location;lat;lon;timestamp;P1;durP1;ratioP1;P2;durP2;ratioP2
70228;SDS011;57617;51.988;5.854;2023-09-19T00:02:08;4.55;;;1.40;;
70228;SDS011;57617;51.988;5.854;2023-09-19T00:04:33;6.72;;;1.40;;
70228;SDS011;57617;51.988;5.854;2023-09-19T00:06:59;5.47;;;1.50;;
70228;SDS011;57617;51.988;5.854;2023-09-19T00:09:27;10.27;;;1.80;;
70228;SDS011;57617;51.988;5.854;2023-09-19T00:11:53;7.28;;;1.77;;
70228;SDS011;57617;51.988;5.854;2023-09-19T00:14:18;4.97;;;2.17;;
70228;SDS011;57617;51.988;5.854;2023-09-19T00:16:44;6.93;;;2.00;;
70228;SDS011;57617;51.988;5.854;2023-09-19T00:19:11;8.45;;;1.60;;
70228;SDS011;57617;51.988;5.854;2023-09-19T00:21:36;9.15;;;1.70;;
70228;SDS011;57617;51.988;5.854;2023-09-19T00:24:03;4.32;;;1.52;;
70228;SDS011;57617;51.988;5.854;2023-09-19T00:26:31;9.50;;;1.75;;
70228;SDS011;57617;51.988;5.854;2023-09-19T00:28:57;7.80;;;1.70;;
70228;SDS011;57617;51.988;5.854;2023-09-19T00:31:22;9.10;;;1.70;;
70228;SDS011;57617;51.988;5.854;2023-09-19T00:33:48;7.75;;;1.70;;
70228;SDS011;57617;51.988;5.854;2023-09-19T00:36:13;9.73;;;2.33;;
70228;SDS011;57617;51.988;5.854;2023-09-19T00:38:39;6.32;;;2.20;;
70228;SDS011;57617;51.988;5.854;2023-09-19T00:41:04;8.82;;;2.08;;
70228;SDS011;57617;51.988;5.854;2023-09-19T00:43:29;14.05;;;2.63;;
70228;SDS011;57617;51.988;5.854;2023-09-19T00:45:59;14.73;;;2.55;;
70228;SDS011;57617;51.988;5.854;2023-09-19T00:48:26;6.78;;;2.38;;
70228;SDS011;57617;51.988;5.854;2023-09-19T00:50:53;11.38;;;2.20;;
70228;SDS011;57617;51.988;5.854;2023-09-19T00:53:20;11.18;;;2.30;;
70228;SDS011;57617;51.988;5.854;2023-09-19T00:55:49;7.55;;;1.92;;
70228;SDS011;57617;51.988;5.854;2023-09-19T00:58:16;10.10;;;2.55;;
70228;SDS011;57617;51.988;5.854;2023-09-19T01:00:43;8.88;;;2.10;;
70228;SDS011;57617;51.988;5.854;2023-09-19T01:03:09;6.03;;;2.08;;
70228;SDS011;57617;51.988;5.854;2023-09-19T01:05:35;11.77;;;2.10;;
70228;SDS011;57617;51.988;5.854;2023-09-19T01:08:01;8.68;;;1.88;;
70228;SDS011;57617;51.988;5.854;2023-09-19T01:10:26;10.02;;;2.30;;
70228;SDS011;57617;51.988;5.854;2023-09-19T01:16:03;9.57;;;2.10;;
70228;SDS011;57617;51.988;5.854;2023-09-19T01:21:11;13.23;;;2.60;;
70228;SDS011;57617;51.988;5.854;2023-09-19T01:29:45;11.05;;;2.55;;
70228;SDS011;57617;51.988;5.854;2023-09-19T01:32:13;13.40;;;3.03;;
70228;SDS011;57617;51.988;5.854;2023-09-19T01:34:49;15.88;;;2.55;;
70228;SDS011;57617;51.988;5.854;2023-09-19T01:37:22;10.90;;;2.60;;
70228;SDS011;57617;51.988;5.854;2023-09-19T01:39:53;11.10;;;2.72;;
70228;SDS011;57617;51.988;5.854;2023-09-19T01:48:02;13.30;;;2.38;;
70228;SDS011;57617;51.988;5.854;2023-09-19T01:50:42;11.77;;;2.35;;
70228;SDS011;57617;51.988;5.854;2023-09-19T01:53:21;9.75;;;2.58;;
70228;SDS011;57617;51.988;5.854;2023-09-19T01:55:50;11.70;;;2.95;;
70228;SDS011;57617;51.988;5.854;2023-09-19T01:58:20;10.68;;;2.30;;
70228;SDS011;57617;51.988;5.854;2023-09-19T02:00:52;12.77;;;2.95;;
70228;SDS011;57617;51.988;5.854;2023-09-19T02:03:20;10.80;;;2.22;;
70228;SDS011;57617;51.988;5.854;2023-09-19T02:05:49;10.90;;;2.85;;
70228;SDS011;57617;51.988;5.854;2023-09-19T02:08:17;14.40;;;2.38;;
70228;SDS011;57617;51.988;5.854;2023-09-19T02:10:44;12.77;;;2.53;;
70228;SDS011;57617;51.988;5.854;2023-09-19T02:13:14;10.70;;;2.60;;
70228;SDS011;57617;51.988;5.854;2023-09-19T02:15:41;16.75;;;2.22;;
70228;SDS011;57617;51.988;5.854;2023-09-19T02:18:09;8.93;;;2.20;;
70228;SDS011;57617;51.988;5.854;2023-09-19T02:20:34;12.13;;;2.63;;
70228;SDS011;57617;51.988;5.854;2023-09-19T02:22:59;13.82;;;2.15;;
70228;SDS011;57617;51.988;5.854;2023-09-19T02:25:25;13.57;;;2.38;;
70228;SDS011;57617;51.988;5.854;2023-09-19T02:27:52;15.02;;;2.38;;
70228;SDS011;57617;51.988;5.854;2023-09-19T02:30:19;12.95;;;2.30;;
70228;SDS011;57617;51.988;5.854;2023-09-19T02:32:46;13.07;;;2.33;;
70228;SDS011;57617;51.988;5.854;2023-09-19T02:35:11;13.52;;;2.17;;
70228;SDS011;57617;51.988;5.854;2023-09-19T02:37:37;12.80;;;2.85;;
70228;SDS011;57617;51.988;5.854;2023-09-19T02:40:02;12.63;;;2.97;;
70228;SDS011;57617;51.988;5.854;2023-09-19T02:42:31;12.23;;;2.17;;
70228;SDS011;57617;51.988;5.854;2023-09-19T02:44:56;11.57;;;2.22;;
70228;SDS011;57617;51.988;5.854;2023-09-19T02:47:21;10.38;;;2.28;;
70228;SDS011;57617;51.988;5.854;2023-09-19T02:49:47;9.57;;;2.05;;
70228;SDS011;57617;51.988;5.854;2023-09-19T02:52:13;16.33;;;2.55;;
70228;SDS011;57617;51.988;5.854;2023-09-19T02:54:39;8.70;;;2.03;;
70228;SDS011;57617;51.988;5.854;2023-09-19T02:57:05;11.40;;;2.15;;
70228;SDS011;57617;51.988;5.854;2023-09-19T02:59:32;11.35;;;2.13;;
70228;SDS011;57617;51.988;5.854;2023-09-19T03:01:57;12.38;;;2.03;;
70228;SDS011;57617;51.988;5.854;2023-09-19T03:04:22;13.23;;;2.15;;
70228;SDS011;57617;51.988;5.854;2023-09-19T03:06:48;9.55;;;1.73;;
70228;SDS011;57617;51.988;5.854;2023-09-19T03:09:16;13.98;;;2.58;;
70228;SDS011;57617;51.988;5.854;2023-09-19T03:11:41;8.48;;;1.88;;
70228;SDS011;57617;51.988;5.854;2023-09-19T03:14:07;12.98;;;2.17;;
70228;SDS011;57617;51.988;5.854;2023-09-19T03:16:33;11.30;;;1.98;;
70228;SDS011;57617;51.988;5.854;2023-09-19T03:18:58;14.02;;;2.65;;
70228;SDS011;57617;51.988;5.854;2023-09-19T03:21:24;10.77;;;2.30;;
70228;SDS011;57617;51.988;5.854;2023-09-19T03:23:50;12.95;;;2.03;;
70228;SDS011;57617;51.988;5.854;2023-09-19T03:26:16;11.05;;;2.17;;
70228;SDS011;57617;51.988;5.854;2023-09-19T03:28:41;7.78;;;2.17;;
70228;SDS011;57617;51.988;5.854;2023-09-19T03:31:08;12.55;;;2.45;;
70228;SDS011;57617;51.988;5.854;2023-09-19T03:33:34;10.52;;;2.45;;
70228;SDS011;57617;51.988;5.854;2023-09-19T03:35:59;9.32;;;2.17;;
70228;SDS011;57617;51.988;5.854;2023-09-19T03:38:26;9.75;;;2.17;;
70228;SDS011;57617;51.988;5.854;2023-09-19T03:40:52;7.50;;;2.00;;
70228;SDS011;57617;51.988;5.854;2023-09-19T03:43:18;9.75;;;2.13;;
70228;SDS011;57617;51.988;5.854;2023-09-19T03:45:44;13.32;;;2.20;;
70228;SDS011;57617;51.988;5.854;2023-09-19T03:48:10;9.35;;;2.05;;
70228;SDS011;57617;51.988;5.854;2023-09-19T03:50:35;14.95;;;2.40;;
70228;SDS011;57617;51.988;5.854;2023-09-19T03:53:01;13.20;;;2.35;;
70228;SDS011;57617;51.988;5.854;2023-09-19T03:55:27;12.30;;;1.90;;
70228;SDS011;57617;51.988;5.854;2023-09-19T03:57:52;10.38;;;2.03;;
70228;SDS011;57617;51.988;5.854;2023-09-19T04:00:17;8.95;;;1.98;;
70228;SDS011;57617;51.988;5.854;2023-09-19T04:02:46;9.25;;;1.80;;
70228;SDS011;57617;51.988;5.854;2023-09-19T04:05:11;9.75;;;1.88;;
70228;SDS011;57617;51.988;5.854;2023-09-19T04:07:36;11.20;;;1.90;;
70228;SDS011;57617;51.988;5.854;2023-09-19T04:10:02;11.55;;;1.80;;
70228;SDS011;57617;51.988;5.854;2023-09-19T04:12:28;11.20;;;1.85;;
70228;SDS011;57617;51.988;5.854;2023-09-19T04:14:53;8.10;;;1.83;;
70228;SDS011;57617;51.988;5.854;2023-09-19T04:17:18;15.87;;;2.13;;
70228;SDS011;57617;51.988;5.854;2023-09-19T04:19:44;11.20;;;2.63;;
70228;SDS011;57617;51.988;5.854;2023-09-19T04:22:10;12.02;;;2.25;;
70228;SDS011;57617;51.988;5.854;2023-09-19T04:24:36;11.07;;;1.90;;
70228;SDS011;57617;51.988;5.854;2023-09-19T04:27:03;11.98;;;2.00;;
70228;SDS011;57617;51.988;5.854;2023-09-19T04:29:28;7.32;;;1.85;;
70228;SDS011;57617;51.988;5.854;2023-09-19T04:31:54;7.32;;;1.60;;
70228;SDS011;57617;51.988;5.854;2023-09-19T04:34:19;10.63;;;2.05;;
70228;SDS011;57617;51.988;5.854;2023-09-19T04:36:44;10.18;;;1.73;;
70228;SDS011;57617;51.988;5.854;2023-09-19T04:39:10;7.88;;;2.22;;
70228;SDS011;57617;51.988;5.854;2023-09-19T04:41:38;7.45;;;1.65;;
70228;SDS011;57617;51.988;5.854;2023-09-19T04:44:06;12.30;;;1.95;;
70228;SDS011;57617;51.988;5.854;2023-09-19T04:46:35;7.63;;;1.92;;
70228;SDS011;57617;51.988;5.854;2023-09-19T04:49:00;9.25;;;1.83;;
70228;SDS011;57617;51.988;5.854;2023-09-19T04:51:26;11.90;;;1.73;;
70228;SDS011;57617;51.988;5.854;2023-09-19T04:53:54;12.32;;;2.30;;
70228;SDS011;57617;51.988;5.854;2023-09-19T04:56:19;9.80;;;1.73;;
70228;SDS011;57617;51.988;5.854;2023-09-19T04:58:46;12.73;;;2.05;;
70228;SDS011;57617;51.988;5.854;2023-09-19T05:01:11;11.60;;;2.15;;
70228;SDS011;57617;51.988;5.854;2023-09-19T05:03:40;10.73;;;1.85;;
70228;SDS011;57617;51.988;5.854;2023-09-19T05:06:05;8.30;;;1.60;;
70228;SDS011;57617;51.988;5.854;2023-09-19T05:08:30;10.88;;;1.60;;
70228;SDS011;57617;51.988;5.854;2023-09-19T05:10:55;9.15;;;1.88;;
70228;SDS011;57617;51.988;5.854;2023-09-19T05:13:21;8.55;;;1.70;;
70228;SDS011;57617;51.988;5.854;2023-09-19T05:15:48;10.38;;;1.80;;
70228;SDS011;57617;51.988;5.854;2023-09-19T05:18:15;8.10;;;1.80;;
70228;SDS011;57617;51.988;5.854;2023-09-19T05:20:40;12.23;;;1.80;;
70228;SDS011;57617;51.988;5.854;2023-09-19T05:23:06;11.15;;;2.10;;
70228;SDS011;57617;51.988;5.854;2023-09-19T05:25:36;11.75;;;1.85;;
70228;SDS011;57617;51.988;5.854;2023-09-19T05:28:02;10.95;;;2.47;;
70228;SDS011;57617;51.988;5.854;2023-09-19T05:30:28;11.88;;;1.95;;
70228;SDS011;57617;51.988;5.854;2023-09-19T05:32:54;9.25;;;1.73;;
70228;SDS011;57617;51.988;5.854;2023-09-19T05:35:20;8.77;;;2.03;;
70228;SDS011;57617;51.988;5.854;2023-09-19T05:37:47;9.73;;;1.58;;
70228;SDS011;57617;51.988;5.854;2023-09-19T05:40:15;6.95;;;1.58;;
70228;SDS011;57617;51.988;5.854;2023-09-19T05:42:41;11.07;;;1.90;;
70228;SDS011;57617;51.988;5.854;2023-09-19T05:45:09;14.35;;;2.00;;
70228;SDS011;57617;51.988;5.854;2023-09-19T05:47:37;10.57;;;1.88;;
70228;SDS011;57617;51.988;5.854;2023-09-19T05:50:02;8.85;;;2.20;;
70228;SDS011;57617;51.988;5.854;2023-09-19T05:52:28;13.00;;;2.00;;
70228;SDS011;57617;51.988;5.854;2023-09-19T05:54:54;9.35;;;2.10;;
70228;SDS011;57617;51.988;5.854;2023-09-19T05:57:19;11.73;;;1.67;;
70228;SDS011;57617;51.988;5.854;2023-09-19T05:59:44;13.27;;;1.90;;
70228;SDS011;57617;51.988;5.854;2023-09-19T06:02:10;11.05;;;2.10;;
70228;SDS011;57617;51.988;5.854;2023-09-19T06:04:37;9.48;;;1.77;;
70228;SDS011;57617;51.988;5.854;2023-09-19T06:07:05;10.05;;;2.03;;
70228;SDS011;57617;51.988;5.854;2023-09-19T06:09:31;11.80;;;2.10;;
70228;SDS011;57617;51.988;5.854;2023-09-19T06:11:57;16.33;;;2.00;;
70228;SDS011;57617;51.988;5.854;2023-09-19T06:14:22;8.73;;;1.88;;
70228;SDS011;57617;51.988;5.854;2023-09-19T06:16:49;9.77;;;2.20;;
70228;SDS011;57617;51.988;5.854;2023-09-19T06:19:15;9.52;;;1.65;;
70228;SDS011;57617;51.988;5.854;2023-09-19T06:21:40;11.73;;;1.67;;
70228;SDS011;57617;51.988;5.854;2023-09-19T06:24:06;10.55;;;1.67;;
70228;SDS011;57617;51.988;5.854;2023-09-19T06:26:31;11.68;;;1.75;;
70228;SDS011;57617;51.988;5.854;2023-09-19T06:28:57;8.70;;;1.67;;
70228;SDS011;57617;51.988;5.854;2023-09-19T06:31:22;11.60;;;2.17;;
70228;SDS011;57617;51.988;5.854;2023-09-19T06:33:51;11.55;;;1.80;;
70228;SDS011;57617;51.988;5.854;2023-09-19T06:36:17;14.38;;;2.05;;
70228;SDS011;57617;51.988;5.854;2023-09-19T06:38:42;10.45;;;1.83;;
70228;SDS011;57617;51.988;5.854;2023-09-19T06:41:07;8.38;;;1.90;;
70228;SDS011;57617;51.988;5.854;2023-09-19T06:43:34;9.40;;;1.85;;
70228;SDS011;57617;51.988;5.854;2023-09-19T06:45:59;11.88;;;1.80;;
70228;SDS011;57617;51.988;5.854;2023-09-19T06:48:25;12.13;;;2.63;;
70228;SDS011;57617;51.988;5.854;2023-09-19T06:50:54;12.77;;;1.90;;
70228;SDS011;57617;51.988;5.854;2023-09-19T06:53:20;7.80;;;1.73;;
70228;SDS011;57617;51.988;5.854;2023-09-19T06:55:45;10.40;;;1.98;;
70228;SDS011;57617;51.988;5.854;2023-09-19T06:58:12;14.10;;;1.85;;
70228;SDS011;57617;51.988;5.854;2023-09-19T07:00:38;14.95;;;1.90;;
70228;SDS011;57617;51.988;5.854;2023-09-19T07:05:33;10.15;;;2.10;;
70228;SDS011;57617;51.988;5.854;2023-09-19T07:08:02;10.45;;;2.30;;
70228;SDS011;57617;51.988;5.854;2023-09-19T07:10:28;8.77;;;2.03;;
70228;SDS011;57617;51.988;5.854;2023-09-19T07:13:03;8.52;;;2.10;;
70228;SDS011;57617;51.988;5.854;2023-09-19T07:15:33;8.35;;;1.70;;
70228;SDS011;57617;51.988;5.854;2023-09-19T07:18:01;9.32;;;1.85;;
70228;SDS011;57617;51.988;5.854;2023-09-19T07:20:27;14.80;;;2.00;;
70228;SDS011;57617;51.988;5.854;2023-09-19T07:22:54;10.18;;;1.92;;
70228;SDS011;57617;51.988;5.854;2023-09-19T07:25:20;9.63;;;1.90;;
70228;SDS011;57617;51.988;5.854;2023-09-19T07:27:46;14.68;;;2.13;;
70228;SDS011;57617;51.988;5.854;2023-09-19T07:30:11;14.30;;;2.10;;
70228;SDS011;57617;51.988;5.854;2023-09-19T07:32:38;13.25;;;2.00;;
70228;SDS011;57617;51.988;5.854;2023-09-19T07:35:04;16.00;;;2.38;;
70228;SDS011;57617;51.988;5.854;2023-09-19T07:37:32;13.88;;;1.85;;
70228;SDS011;57617;51.988;5.854;2023-09-19T07:39:59;11.88;;;1.80;;
70228;SDS011;57617;51.988;5.854;2023-09-19T07:42:26;10.68;;;1.88;;
70228;SDS011;57617;51.988;5.854;2023-09-19T07:44:51;13.63;;;2.10;;
70228;SDS011;57617;51.988;5.854;2023-09-19T07:47:18;11.50;;;2.42;;
70228;SDS011;57617;51.988;5.854;2023-09-19T07:49:46;13.93;;;2.00;;
70228;SDS011;57617;51.988;5.854;2023-09-19T07:52:12;10.93;;;2.45;;
70228;SDS011;57617;51.988;5.854;2023-09-19T07:54:38;9.77;;;1.90;;
70228;SDS011;57617;51.988;5.854;2023-09-19T07:57:06;14.50;;;2.30;;
70228;SDS011;57617;51.988;5.854;2023-09-19T07:59:32;9.93;;;1.90;;
70228;SDS011;57617;51.988;5.854;2023-09-19T08:01:57;11.68;;;2.10;;
70228;SDS011;57617;51.988;5.854;2023-09-19T08:04:23;13.88;;;2.00;;
70228;SDS011;57617;51.988;5.854;2023-09-19T08:06:50;19.15;;;2.20;;
70228;SDS011;57617;51.988;5.854;2023-09-19T08:09:17;12.70;;;2.30;;
70228;SDS011;57617;51.988;5.854;2023-09-19T08:11:45;10.00;;;1.60;;
70228;SDS011;57617;51.988;5.854;2023-09-19T08:14:11;12.95;;;2.17;;
70228;SDS011;57617;51.988;5.854;2023-09-19T08:16:39;12.60;;;2.17;;
70228;SDS011;57617;51.988;5.854;2023-09-19T08:19:04;10.13;;;2.20;;
70228;SDS011;57617;51.988;5.854;2023-09-19T08:21:31;15.95;;;2.17;;
70228;SDS011;57617;51.988;5.854;2023-09-19T08:23:57;16.13;;;2.72;;
70228;SDS011;57617;51.988;5.854;2023-09-19T08:26:22;12.10;;;2.20;;
70228;SDS011;57617;51.988;5.854;2023-09-19T08:28:49;12.93;;;2.08;;
70228;SDS011;57617;51.988;5.854;2023-09-19T08:31:16;14.02;;;2.42;;
70228;SDS011;57617;51.988;5.854;2023-09-19T08:33:42;12.30;;;1.90;;
70228;SDS011;57617;51.988;5.854;2023-09-19T08:36:12;12.30;;;2.28;;
70228;SDS011;57617;51.988;5.854;2023-09-19T08:38:39;14.40;;;2.33;;
70228;SDS011;57617;51.988;5.854;2023-09-19T08:41:07;12.15;;;1.90;;
70228;SDS011;57617;51.988;5.854;2023-09-19T08:43:33;13.50;;;2.50;;
70228;SDS011;57617;51.988;5.854;2023-09-19T08:48:30;14.90;;;2.35;;
70228;SDS011;57617;51.988;5.854;2023-09-19T08:56:16;14.32;;;2.28;;
70228;SDS011;57617;51.988;5.854;2023-09-19T08:59:03;13.07;;;2.00;;
70228;SDS011;57617;51.988;5.854;2023-09-19T09:01:34;11.38;;;2.25;;
70228;SDS011;57617;51.988;5.854;2023-09-19T09:04:01;13.85;;;2.20;;
70228;SDS011;57617;51.988;5.854;2023-09-19T09:06:27;13.02;;;1.98;;
70228;SDS011;57617;51.988;5.854;2023-09-19T09:08:54;17.77;;;2.40;;
70228;SDS011;57617;51.988;5.854;2023-09-19T09:11:19;12.07;;;2.10;;
70228;SDS011;57617;51.988;5.854;2023-09-19T09:13:46;12.65;;;2.15;;
70228;SDS011;57617;51.988;5.854;2023-09-19T09:16:12;13.73;;;1.98;;
70228;SDS011;57617;51.988;5.854;2023-09-19T09:18:38;12.02;;;2.05;;
70228;SDS011;57617;51.988;5.854;2023-09-19T09:21:04;11.52;;;2.20;;
70228;SDS011;57617;51.988;5.854;2023-09-19T09:23:30;19.13;;;2.45;;
70228;SDS011;57617;51.988;5.854;2023-09-19T09:25:57;10.13;;;1.70;;
70228;SDS011;57617;51.988;5.854;2023-09-19T09:28:27;11.82;;;2.40;;
70228;SDS011;57617;51.988;5.854;2023-09-19T09:30:57;10.52;;;1.98;;
70228;SDS011;57617;51.988;5.854;2023-09-19T09:33:27;18.75;;;3.15;;
70228;SDS011;57617;51.988;5.854;2023-09-19T09:38:25;12.65;;;2.05;;
70228;SDS011;57617;51.988;5.854;2023-09-19T09:40:57;11.90;;;1.90;;
70228;SDS011;57617;51.988;5.854;2023-09-19T09:43:34;8.48;;;1.75;;
70228;SDS011;57617;51.988;5.854;2023-09-19T09:48:44;12.40;;;2.08;;
70228;SDS011;57617;51.988;5.854;2023-09-19T09:51:17;11.90;;;2.05;;
70228;SDS011;57617;51.988;5.854;2023-09-19T09:54:16;8.18;;;1.90;;
70228;SDS011;57617;51.988;5.854;2023-09-19T09:56:53;15.20;;;2.22;;
70228;SDS011;57617;51.988;5.854;2023-09-19T10:02:16;13.90;;;2.30;;
70228;SDS011;57617;51.988;5.854;2023-09-19T10:04:57;9.45;;;2.00;;
70228;SDS011;57617;51.988;5.854;2023-09-19T10:07:38;15.48;;;2.28;;
70228;SDS011;57617;51.988;5.854;2023-09-19T10:10:07;15.95;;;2.08;;
70228;SDS011;57617;51.988;5.854;2023-09-19T10:12:44;15.50;;;1.90;;
70228;SDS011;57617;51.988;5.854;2023-09-19T10:15:13;11.18;;;1.95;;
70228;SDS011;57617;51.988;5.854;2023-09-19T10:17:41;12.23;;;2.30;;
70228;SDS011;57617;51.988;5.854;2023-09-19T10:20:08;9.20;;;2.20;;
70228;SDS011;57617;51.988;5.854;2023-09-19T10:22:47;9.02;;;1.90;;
70228;SDS011;57617;51.988;5.854;2023-09-19T10:25:24;16.52;;;2.65;;
70228;SDS011;57617;51.988;5.854;2023-09-19T10:27:50;10.38;;;2.45;;
70228;SDS011;57617;51.988;5.854;2023-09-19T10:30:18;11.75;;;2.13;;
70228;SDS011;57617;51.988;5.854;2023-09-19T10:32:45;10.90;;;1.98;;
70228;SDS011;57617;51.988;5.854;2023-09-19T10:35:17;12.25;;;1.80;;
70228;SDS011;57617;51.988;5.854;2023-09-19T10:37:43;9.25;;;1.70;;
70228;SDS011;57617;51.988;5.854;2023-09-19T10:40:14;9.60;;;1.88;;
70228;SDS011;57617;51.988;5.854;2023-09-19T10:42:41;10.40;;;2.08;;
70228;SDS011;57617;51.988;5.854;2023-09-19T10:45:08;9.13;;;2.25;;
70228;SDS011;57617;51.988;5.854;2023-09-19T10:47:38;14.07;;;2.17;;
70228;SDS011;57617;51.988;5.854;2023-09-19T10:50:05;9.27;;;2.05;;
70228;SDS011;57617;51.988;5.854;2023-09-19T10:52:31;11.18;;;2.00;;
70228;SDS011;57617;51.988;5.854;2023-09-19T10:54:59;7.15;;;1.90;;
70228;SDS011;57617;51.988;5.854;2023-09-19T10:57:26;7.75;;;1.92;;
70228;SDS011;57617;51.988;5.854;2023-09-19T11:00:07;14.45;;;2.30;;
70228;SDS011;57617;51.988;5.854;2023-09-19T11:06:00;8.88;;;2.22;;
70228;SDS011;57617;51.988;5.854;2023-09-19T11:08:30;11.50;;;2.20;;
70228;SDS011;57617;51.988;5.854;2023-09-19T11:20:14;9.70;;;2.05;;
70228;SDS011;57617;51.988;5.854;2023-09-19T11:30:30;8.20;;;1.75;;
70228;SDS011;57617;51.988;5.854;2023-09-19T11:46:25;6.15;;;1.80;;
70228;SDS011;57617;51.988;5.854;2023-09-19T11:48:53;8.70;;;1.92;;
70228;SDS011;57617;51.988;5.854;2023-09-19T11:51:23;11.40;;;1.67;;
70228;SDS011;57617;51.988;5.854;2023-09-19T11:53:56;10.35;;;2.08;;
70228;SDS011;57617;51.988;5.854;2023-09-19T11:56:26;13.43;;;1.92;;
70228;SDS011;57617;51.988;5.854;2023-09-19T11:58:56;6.25;;;1.60;;
70228;SDS011;57617;51.988;5.854;2023-09-19T12:01:29;10.88;;;1.80;;
70228;SDS011;57617;51.988;5.854;2023-09-19T12:03:57;13.88;;;2.05;;
70228;SDS011;57617;51.988;5.854;2023-09-19T12:06:24;10.00;;;1.90;;
70228;SDS011;57617;51.988;5.854;2023-09-19T12:08:50;9.10;;;1.63;;
70228;SDS011;57617;51.988;5.854;2023-09-19T12:11:18;11.35;;;1.88;;
70228;SDS011;57617;51.988;5.854;2023-09-19T12:13:45;10.18;;;1.50;;
70228;SDS011;57617;51.988;5.854;2023-09-19T12:16:14;5.05;;;1.33;;
70228;SDS011;57617;51.988;5.854;2023-09-19T12:18:40;9.20;;;1.95;;
70228;SDS011;57617;51.988;5.854;2023-09-19T12:26:37;7.50;;;1.73;;
70228;SDS011;57617;51.988;5.854;2023-09-19T12:29:14;10.00;;;1.40;;
70228;SDS011;57617;51.988;5.854;2023-09-19T12:34:24;8.00;;;1.40;;
70228;SDS011;57617;51.988;5.854;2023-09-19T12:39:47;3.80;;;1.20;;
70228;SDS011;57617;51.988;5.854;2023-09-19T12:42:14;5.45;;;1.20;;
70228;SDS011;57617;51.988;5.854;2023-09-19T12:44:41;7.93;;;1.65;;
70228;SDS011;57617;51.988;5.854;2023-09-19T12:47:09;7.97;;;1.42;;
70228;SDS011;57617;51.988;5.854;2023-09-19T12:52:38;5.13;;;1.00;;
70228;SDS011;57617;51.988;5.854;2023-09-19T12:55:04;6.03;;;1.25;;
70228;SDS011;57617;51.988;5.854;2023-09-19T12:57:32;7.00;;;0.90;;
70228;SDS011;57617;51.988;5.854;2023-09-19T13:00:00;4.30;;;1.13;;
70228;SDS011;57617;51.988;5.854;2023-09-19T13:02:26;4.65;;;0.90;;
70228;SDS011;57617;51.988;5.854;2023-09-19T13:04:53;3.88;;;0.90;;
70228;SDS011;57617;51.988;5.854;2023-09-19T13:10:10;6.18;;;1.20;;
70228;SDS011;57617;51.988;5.854;2023-09-19T13:12:36;5.20;;;1.23;;
70228;SDS011;57617;51.988;5.854;2023-09-19T13:15:09;8.40;;;1.63;;
70228;SDS011;57617;51.988;5.854;2023-09-19T13:17:44;7.45;;;1.20;;
70228;SDS011;57617;51.988;5.854;2023-09-19T13:22:54;4.03;;;1.15;;
70228;SDS011;57617;51.988;5.854;2023-09-19T13:25:25;4.60;;;1.08;;
70228;SDS011;57617;51.988;5.854;2023-09-19T13:27:54;8.20;;;1.00;;
70228;SDS011;57617;51.988;5.854;2023-09-19T13:30:22;4.18;;;1.00;;
70228;SDS011;57617;51.988;5.854;2023-09-19T13:32:50;4.53;;;1.08;;
70228;SDS011;57617;51.988;5.854;2023-09-19T13:35:16;5.70;;;1.20;;
70228;SDS011;57617;51.988;5.854;2023-09-19T13:37:41;7.57;;;1.10;;
70228;SDS011;57617;51.988;5.854;2023-09-19T13:40:11;3.85;;;0.90;;
70228;SDS011;57617;51.988;5.854;2023-09-19T13:42:37;8.50;;;2.42;;
70228;SDS011;57617;51.988;5.854;2023-09-19T13:45:03;4.93;;;1.17;;
70228;SDS011;57617;51.988;5.854;2023-09-19T13:47:29;4.70;;;1.17;;
70228;SDS011;57617;51.988;5.854;2023-09-19T13:49:55;3.72;;;0.93;;
70228;SDS011;57617;51.988;5.854;2023-09-19T13:52:21;3.13;;;0.98;;
70228;SDS011;57617;51.988;5.854;2023-09-19T13:54:48;2.45;;;0.80;;
70228;SDS011;57617;51.988;5.854;2023-09-19T22:04:05;5.65;;;2.20;;
70228;SDS011;57617;51.988;5.854;2023-09-19T22:06:31;6.20;;;2.30;;
70228;SDS011;57617;51.988;5.854;2023-09-19T22:08:56;7.18;;;1.90;;
70228;SDS011;57617;51.988;5.854;2023-09-19T22:11:22;8.55;;;2.50;;
70228;SDS011;57617;51.988;5.854;2023-09-19T22:13:47;5.20;;;1.98;;
70228;SDS011;57617;51.988;5.854;2023-09-19T22:16:13;8.80;;;2.50;;
70228;SDS011;57617;51.988;5.854;2023-09-19T22:18:40;8.63;;;2.17;;
70228;SDS011;57617;51.988;5.854;2023-09-19T22:21:15;7.45;;;2.20;;
70228;SDS011;57617;51.988;5.854;2023-09-19T22:24:19;9.43;;;2.35;;
70228;SDS011;57617;51.988;5.854;2023-09-19T22:26:45;9.45;;;2.28;;
70228;SDS011;57617;51.988;5.854;2023-09-19T22:29:12;6.15;;;2.22;;
70228;SDS011;57617;51.988;5.854;2023-09-19T22:31:38;6.57;;;2.50;;
70228;SDS011;57617;51.988;5.854;2023-09-19T22:34:07;8.82;;;2.60;;
70228;SDS011;57617;51.988;5.854;2023-09-19T22:36:34;7.55;;;2.45;;
70228;SDS011;57617;51.988;5.854;2023-09-19T22:39:08;10.80;;;2.63;;
70228;SDS011;57617;51.988;5.854;2023-09-19T22:41:49;5.35;;;2.30;;
70228;SDS011;57617;51.988;5.854;2023-09-19T22:44:14;9.82;;;2.30;;
70228;SDS011;57617;51.988;5.854;2023-09-19T22:46:39;10.73;;;2.53;;
70228;SDS011;57617;51.988;5.854;2023-09-19T22:49:06;8.07;;;2.70;;
70228;SDS011;57617;51.988;5.854;2023-09-19T22:51:33;8.82;;;2.47;;
70228;SDS011;57617;51.988;5.854;2023-09-19T22:54:02;8.43;;;2.70;;
70228;SDS011;57617;51.988;5.854;2023-09-19T22:56:30;12.93;;;2.58;;
70228;SDS011;57617;51.988;5.854;2023-09-19T22:58:56;10.88;;;2.75;;
70228;SDS011;57617;51.988;5.854;2023-09-19T23:01:21;8.55;;;2.28;;
70228;SDS011;57617;51.988;5.854;2023-09-19T23:03:49;6.68;;;2.20;;
70228;SDS011;57617;51.988;5.854;2023-09-19T23:06:19;9.05;;;2.22;;
70228;SDS011;57617;51.988;5.854;2023-09-19T23:08:49;7.28;;;2.30;;
70228;SDS011;57617;51.988;5.854;2023-09-19T23:11:17;6.22;;;2.30;;
70228;SDS011;57617;51.988;5.854;2023-09-19T23:13:46;6.43;;;2.50;;
70228;SDS011;57617;51.988;5.854;2023-09-19T23:16:12;8.50;;;2.08;;
70228;SDS011;57617;51.988;5.854;2023-09-19T23:18:38;8.80;;;2.08;;
70228;SDS011;57617;51.988;5.854;2023-09-19T23:21:04;7.03;;;2.50;;
70228;SDS011;57617;51.988;5.854;2023-09-19T23:23:39;8.70;;;2.45;;
70228;SDS011;57617;51.988;5.854;2023-09-19T23:26:07;8.50;;;2.50;;
70228;SDS011;57617;51.988;5.854;2023-09-19T23:28:32;13.02;;;2.40;;
70228;SDS011;57617;51.988;5.854;2023-09-19T23:30:59;5.90;;;2.38;;
70228;SDS011;57617;51.988;5.854;2023-09-19T23:33:25;7.47;;;2.40;;
70228;SDS011;57617;51.988;5.854;2023-09-19T23:35:50;5.82;;;2.20;;
70228;SDS011;57617;51.988;5.854;2023-09-19T23:38:17;8.93;;;2.40;;
70228;SDS011;57617;51.988;5.854;2023-09-19T23:40:47;6.35;;;2.15;;
70228;SDS011;57617;51.988;5.854;2023-09-19T23:43:15;8.32;;;2.30;;
70228;SDS011;57617;51.988;5.854;2023-09-19T23:45:42;6.57;;;2.33;;
70228;SDS011;57617;51.988;5.854;2023-09-19T23:48:09;11.68;;;2.40;;
70228;SDS011;57617;51.988;5.854;2023-09-19T23:50:36;7.50;;;2.35;;
70228;SDS011;57617;51.988;5.854;2023-09-19T23:53:02;11.27;;;2.50;;
70228;SDS011;57617;51.988;5.854;2023-09-19T23:55:31;10.13;;;2.55;;
70228;SDS011;57617;51.988;5.854;2023-09-19T23:57:57;8.25;;;2.90;;
